createdAt,value
2023-07-18T00:16:29.692Z,49.9
2023-07-18T00:46:30.885Z,50
2023-07-18T02:16:54.038Z,50.2
2023-07-18T02:46:54.713Z,50.2
2023-07-18T03:16:55.399Z,50.1
2023-07-18T03:47:02.389Z,50.1
2023-07-18T04:17:06.690Z,50.1
2023-07-18T04:47:07.153Z,50.1
2023-07-18T05:17:07.815Z,46.8
2023-07-18T05:47:08.258Z,46.6
2023-07-18T06:47:27.915Z,47.6
2023-07-18T07:17:28.407Z,48.5
2023-07-18T07:47:29.175Z,48.8
2023-07-18T08:17:30.321Z,49
2023-07-18T08:47:31.050Z,49.2
2023-07-18T09:17:32.273Z,49.7
2023-07-18T09:47:32.952Z,50.4
2023-07-18T10:17:33.510Z,50.5
2023-07-18T10:47:34.261Z,50.5
2023-07-18T11:17:35.054Z,50.6
2023-07-18T11:47:35.739Z,50.8
2023-07-18T12:17:36.506Z,51.1
2023-07-18T13:17:47.695Z,51.2
2023-07-18T14:17:59.124Z,51.2
2023-07-18T14:48:00.200Z,51.5
2023-07-18T15:18:00.870Z,51.9
2023-07-18T15:48:01.990Z,51.8
2023-07-18T16:18:02.801Z,51.6
2023-07-18T16:48:04.277Z,51.5
2023-07-18T17:18:05.287Z,51.9
2023-07-18T17:48:06.177Z,51.9
2023-07-18T18:18:07.239Z,51.8
2023-07-18T18:48:08.122Z,51.9
2023-07-18T19:48:19.589Z,52
2023-07-18T20:48:31.220Z,52.2
2023-07-18T21:48:42.128Z,52.4
2023-07-18T22:18:43.011Z,52.8
2023-07-18T22:48:43.609Z,52.8
2023-07-18T23:18:44.415Z,52.8
2023-07-18T23:48:44.944Z,52.9
